CA-0257 weather

CLOSED Nanton (Green Farms) Airport
Alberta, Canada

Public forecast

Using degrees Celsius for public forecast. Weather courtesy of forecast.io.

Closest aviation weather report (METAR) to Nanton (Green Farms) Airport

Closest report is Calgary International Airport, 45.9 nm (85.0 km) NNW. Retrieved 2020/01/25 22:00 UTC (52 minutes ago):

CYYC 252200Z 30010KT 40SM FEW060 FEW085 FEW130 07/M07 A2985 RMK CU1AC1AC1 CU TR AC TR AC TR SLP138 DENSITY ALT 3700FT

Closest aviation forecast (TAF) to Nanton (Green Farms) Airport

Closest forecast is Calgary International Airport, 45.9 nm (85.0 km) NNW. Retrieved 2020/01/25 21:41 UTC (1 hour ago):

TAF CYYC 252038Z 2521/2618 30005KT P6SM FEW060 BECMG 2615/2617 15005KT SCT140 BKN220 RMK NXT FCST BY 260000Z